createdAt,value
2018-09-28T00:00:44.715Z,997.80
2018-09-28T00:01:44.702Z,997.79
2018-09-28T00:02:44.696Z,997.79
2018-09-28T00:03:44.699Z,997.78
2018-09-28T00:04:44.670Z,997.80
2018-09-28T00:05:44.722Z,997.81
2018-09-28T00:06:44.649Z,997.76
2018-09-28T00:07:44.639Z,997.76
2018-09-28T00:08:44.664Z,997.76
2018-09-28T00:09:44.616Z,997.77
2018-09-28T00:10:44.605Z,997.78
2018-09-28T00:11:44.621Z,997.78
2018-09-28T00:12:44.621Z,997.75
2018-09-28T00:13:44.590Z,997.75
2018-09-28T00:14:44.560Z,997.72
2018-09-28T00:15:44.550Z,997.73
2018-09-28T00:16:44.538Z,997.76
2018-09-28T00:17:44.529Z,997.71
2018-09-28T00:18:44.582Z,997.68
2018-09-28T00:19:44.506Z,997.74
2018-09-28T00:20:44.497Z,997.71
2018-09-28T00:21:44.486Z,997.74
2018-09-28T00:22:44.475Z,997.66
2018-09-28T00:23:44.481Z,997.63
2018-09-28T00:24:44.537Z,997.62
2018-09-28T00:25:44.448Z,997.61
2018-09-28T00:26:44.441Z,997.69
2018-09-28T00:27:44.421Z,997.65
2018-09-28T00:28:44.451Z,997.65
2018-09-28T00:29:44.408Z,997.65
2018-09-28T00:30:44.434Z,997.59
2018-09-28T00:31:44.385Z,997.61
2018-09-28T00:32:44.372Z,997.57
2018-09-28T00:33:44.375Z,997.64
2018-09-28T00:34:44.353Z,997.60
2018-09-28T00:35:44.349Z,997.56
2018-09-28T00:36:44.373Z,997.53
2018-09-28T00:37:44.334Z,997.58
2018-09-28T00:38:44.316Z,997.55
2018-09-28T00:39:44.291Z,997.51
2018-09-28T00:40:44.279Z,997.55
2018-09-28T00:41:44.268Z,997.52
2018-09-28T00:42:44.304Z,997.53
2018-09-28T00:43:44.267Z,997.52
2018-09-28T00:44:44.271Z,997.48
2018-09-28T00:45:44.226Z,997.46
2018-09-28T00:46:44.215Z,997.50
2018-09-28T00:47:44.207Z,997.48
2018-09-28T00:48:44.236Z,997.39
2018-09-28T00:49:44.203Z,997.44
2018-09-28T00:50:44.171Z,997.39
2018-09-28T00:51:44.159Z,997.40
2018-09-28T00:52:44.153Z,997.37
2018-09-28T00:53:44.170Z,997.39
2018-09-28T00:54:44.126Z,997.40
2018-09-28T00:55:44.143Z,997.40
2018-09-28T00:56:44.105Z,997.34
2018-09-28T00:57:44.102Z,997.33
2018-09-28T00:58:44.088Z,997.32
2018-09-28T00:59:44.090Z,997.34
2018-09-28T01:00:44.061Z,997.37
2018-09-28T01:01:44.070Z,997.36
2018-09-28T01:02:44.039Z,997.39
2018-09-28T01:03:44.029Z,997.32
2018-09-28T01:04:44.033Z,997.31
2018-09-28T01:05:44.010Z,997.30
2018-09-28T01:06:43.998Z,997.31
2018-09-28T01:07:44.004Z,997.29
2018-09-28T01:08:43.974Z,997.33
2018-09-28T01:09:43.979Z,997.30
2018-09-28T01:10:43.953Z,997.28
2018-09-28T01:11:43.942Z,997.31
2018-09-28T01:12:43.929Z,997.35
2018-09-28T01:13:43.945Z,997.29
2018-09-28T01:14:43.928Z,997.31
2018-09-28T01:15:43.896Z,997.32
2018-09-28T01:16:43.889Z,997.37
2018-09-28T01:17:43.875Z,997.38
2018-09-28T01:18:43.865Z,997.35
2018-09-28T01:19:43.903Z,997.36
2018-09-28T01:20:43.841Z,997.36
2018-09-28T01:21:43.833Z,997.39
2018-09-28T01:22:43.822Z,997.33
2018-09-28T01:23:43.810Z,997.29
2018-09-28T01:24:43.821Z,997.28
2018-09-28T01:25:43.838Z,997.29
2018-09-28T01:26:43.782Z,997.28
2018-09-28T01:27:43.766Z,997.23
2018-09-28T01:28:43.759Z,997.22
2018-09-28T01:29:43.760Z,997.18
2018-09-28T01:30:43.734Z,997.24
2018-09-28T01:31:43.757Z,997.15
2018-09-28T01:32:43.710Z,997.20
2018-09-28T01:33:43.701Z,997.16
2018-09-28T01:34:43.707Z,997.15
2018-09-28T01:35:43.682Z,997.15
2018-09-28T01:36:43.671Z,997.16
2018-09-28T01:37:43.687Z,997.11
2018-09-28T01:38:43.646Z,997.13
2018-09-28T01:39:43.667Z,997.11
2018-09-28T01:40:43.637Z,997.15
2018-09-28T01:41:43.637Z,997.13
2018-09-28T01:42:43.612Z,997.17
2018-09-28T01:43:43.644Z,997.18
2018-09-28T01:44:43.609Z,997.18
2018-09-28T01:45:43.612Z,997.20
2018-09-28T01:46:43.577Z,997.18
2018-09-28T01:47:43.557Z,997.15
2018-09-28T01:48:43.539Z,997.17
2018-09-28T01:49:43.684Z,997.12
2018-09-28T01:50:43.525Z,997.12
2018-09-28T01:51:43.515Z,997.06
2018-09-28T01:52:43.499Z,997.08
2018-09-28T01:53:43.491Z,997.11
2018-09-28T01:54:43.481Z,997.10
2018-09-28T01:55:43.520Z,997.18
2018-09-28T01:56:43.451Z,997.17
2018-09-28T01:57:43.455Z,997.15
2018-09-28T01:58:43.436Z,997.16
2018-09-28T01:59:43.421Z,997.11
2018-09-28T02:00:43.421Z,997.15
2018-09-28T02:01:43.451Z,997.14
2018-09-28T02:02:43.384Z,997.15
2018-09-28T02:03:43.378Z,997.14
2018-09-28T02:04:43.363Z,997.17
2018-09-28T02:05:43.367Z,997.12
2018-09-28T02:06:43.387Z,997.09
2018-09-28T02:07:43.331Z,997.15
2018-09-28T02:08:43.323Z,997.14
2018-09-28T02:09:43.308Z,997.16
2018-09-28T02:10:43.314Z,997.12
2018-09-28T02:11:43.315Z,997.19
2018-09-28T02:12:43.327Z,997.18
2018-09-28T02:13:43.269Z,997.13
2018-09-28T02:14:43.257Z,997.10
2018-09-28T02:15:43.308Z,997.11
2018-09-28T02:16:43.232Z,997.09
2018-09-28T02:17:43.222Z,997.04
2018-09-28T02:18:43.251Z,997.10
2018-09-28T02:19:43.200Z,997.03
2018-09-28T02:20:43.207Z,997.03
2018-09-28T02:21:43.178Z,997.05
2018-09-28T02:22:43.166Z,997.08
2018-09-28T02:23:43.160Z,997.03
2018-09-28T02:24:43.224Z,997.07
2018-09-28T02:25:43.155Z,997.09
2018-09-28T02:26:43.128Z,997.09
2018-09-28T02:27:43.115Z,997.08
2018-09-28T02:28:43.105Z,997.05
2018-09-28T02:29:43.090Z,997.10
2018-09-28T02:30:43.134Z,997.05
2018-09-28T02:31:43.078Z,997.03
2018-09-28T02:32:43.061Z,997.02
2018-09-28T02:33:43.049Z,997.02
2018-09-28T02:34:43.036Z,997.03
2018-09-28T02:35:43.040Z,997.00
2018-09-28T02:36:43.040Z,997.03
2018-09-28T02:37:43.020Z,997.01
2018-09-28T02:38:42.995Z,996.98
2018-09-28T02:39:43.025Z,997.01
2018-09-28T02:40:43.010Z,996.99
2018-09-28T02:41:42.960Z,996.95
2018-09-28T02:42:42.970Z,996.99
2018-09-28T02:43:42.937Z,996.97
2018-09-28T02:44:42.926Z,997.02
2018-09-28T02:45:42.915Z,996.95
2018-09-28T02:46:42.919Z,996.97
2018-09-28T02:47:42.895Z,996.95
2018-09-28T02:48:42.923Z,996.91
2018-09-28T02:49:42.874Z,996.87
2018-09-28T02:50:42.866Z,996.87
2018-09-28T02:51:42.869Z,996.89
2018-09-28T02:52:42.843Z,996.91
2018-09-28T02:53:42.836Z,996.92
2018-09-28T02:54:42.856Z,996.92
2018-09-28T02:55:42.809Z,996.86
2018-09-28T02:56:42.862Z,996.86
2018-09-28T02:57:42.792Z,996.81
2018-09-28T02:58:42.774Z,996.81
2018-09-28T02:59:42.764Z,996.81
2018-09-28T03:00:42.781Z,996.80
2018-09-28T03:01:42.760Z,996.78
2018-09-28T03:02:42.732Z,996.79
2018-09-28T03:03:42.723Z,996.77
2018-09-28T03:04:42.710Z,996.82
2018-09-28T03:05:42.698Z,996.76
2018-09-28T03:06:43.028Z,996.80
2018-09-28T03:07:42.706Z,996.84
2018-09-28T03:08:42.664Z,996.81
2018-09-28T03:09:42.679Z,996.82
2018-09-28T03:10:42.643Z,996.76
2018-09-28T03:11:42.647Z,996.77
2018-09-28T03:12:42.618Z,996.76
2018-09-28T03:13:42.652Z,996.70
2018-09-28T03:14:42.601Z,996.72
2018-09-28T03:15:42.588Z,996.66
2018-09-28T03:16:42.594Z,996.69
2018-09-28T03:17:42.576Z,996.65
2018-09-28T03:18:42.556Z,996.67
2018-09-28T03:19:42.577Z,996.64
2018-09-28T03:20:42.539Z,996.67
2018-09-28T03:21:42.537Z,996.71
2018-09-28T03:22:42.515Z,996.67
2018-09-28T03:23:42.499Z,996.63
2018-09-28T03:24:42.491Z,996.62
2018-09-28T03:25:42.547Z,996.56
2018-09-28T03:26:42.489Z,996.60
2018-09-28T03:27:42.457Z,996.56
2018-09-28T03:28:42.452Z,996.57
2018-09-28T03:29:42.437Z,996.58
2018-09-28T03:30:42.480Z,996.59
2018-09-28T03:31:42.431Z,996.58
2018-09-28T03:32:42.401Z,996.56
2018-09-28T03:33:42.430Z,996.55
2018-09-28T03:34:42.383Z,996.57
2018-09-28T03:35:42.371Z,996.54
2018-09-28T03:36:42.401Z,996.50
2018-09-28T03:37:42.349Z,996.47
2018-09-28T03:38:42.334Z,996.45
2018-09-28T03:39:42.330Z,996.51
2018-09-28T03:40:42.387Z,996.44
2018-09-28T03:41:42.358Z,996.40
2018-09-28T03:42:42.292Z,996.42
2018-09-28T03:43:42.283Z,996.41
2018-09-28T03:44:42.272Z,996.38
2018-09-28T03:45:42.283Z,996.37
2018-09-28T03:46:42.280Z,996.29
2018-09-28T03:47:42.283Z,996.31
2018-09-28T03:48:42.230Z,996.31
2018-09-28T03:49:42.216Z,996.28
2018-09-28T03:50:42.203Z,996.32
2018-09-28T03:51:42.197Z,996.28
2018-09-28T03:52:42.197Z,996.28
2018-09-28T03:53:42.217Z,996.31
2018-09-28T03:54:42.161Z,996.27
2018-09-28T03:55:42.167Z,996.25
2018-09-28T03:56:42.141Z,996.28
2018-09-28T03:57:42.139Z,996.29
2018-09-28T03:58:42.243Z,996.26
2018-09-28T03:59:42.134Z,996.30
2018-09-28T04:00:42.094Z,996.28
2018-09-28T04:01:42.083Z,996.24
2018-09-28T04:02:42.107Z,996.23
2018-09-28T04:03:42.064Z,996.23
2018-09-28T04:04:42.053Z,996.25
2018-09-28T04:05:42.058Z,996.22
2018-09-28T04:06:42.032Z,996.20
2018-09-28T04:07:42.032Z,996.21
2018-09-28T04:08:42.007Z,996.24
2018-09-28T04:09:42.000Z,996.23
2018-09-28T04:10:41.986Z,996.18
2018-09-28T04:11:41.995Z,996.23
2018-09-28T04:12:41.981Z,996.21
2018-09-28T04:13:41.963Z,996.15
2018-09-28T04:14:41.941Z,996.18
2018-09-28T04:15:41.936Z,996.17
2018-09-28T04:16:41.920Z,996.20
2018-09-28T04:17:41.955Z,996.18
2018-09-28T04:18:41.898Z,996.19
2018-09-28T04:19:41.888Z,996.17
2018-09-28T04:20:41.880Z,996.16
2018-09-28T04:21:41.871Z,996.21
2018-09-28T04:22:41.874Z,996.16
2018-09-28T04:23:41.871Z,996.18
2018-09-28T04:24:41.913Z,996.14
2018-09-28T04:25:41.824Z,996.10
2018-09-28T04:26:41.810Z,996.08
2018-09-28T04:27:41.827Z,996.04
2018-09-28T04:28:41.805Z,996.04
2018-09-28T04:29:41.813Z,996.07
2018-09-28T04:30:41.766Z,996.08
2018-09-28T04:31:41.767Z,996.05
2018-09-28T04:32:41.761Z,996.04
2018-09-28T04:33:41.740Z,996.00
2018-09-28T04:34:41.726Z,996.05
2018-09-28T04:35:41.750Z,996.08
2018-09-28T04:36:41.702Z,996.08
2018-09-28T04:37:41.709Z,996.03
2018-09-28T04:38:41.681Z,996.03
2018-09-28T04:39:41.675Z,996.04
2018-09-28T04:40:41.662Z,996.02
2018-09-28T04:41:41.669Z,996.11
2018-09-28T04:42:41.708Z,996.09
2018-09-28T04:43:41.627Z,996.08
2018-09-28T04:44:41.617Z,996.04
2018-09-28T04:45:41.668Z,996.03
2018-09-28T04:46:41.594Z,996.04
2018-09-28T04:47:41.582Z,996.05
2018-09-28T04:48:41.624Z,996.12
2018-09-28T04:49:41.568Z,996.11
2018-09-28T04:50:41.549Z,996.16
2018-09-28T04:51:41.539Z,996.12
2018-09-28T04:52:41.528Z,996.12
2018-09-28T04:53:41.535Z,996.17
2018-09-28T04:54:41.550Z,996.20
2018-09-28T04:55:41.498Z,996.19
2018-09-28T04:56:41.484Z,996.21
2018-09-28T04:57:41.476Z,996.22
2018-09-28T04:58:41.507Z,996.25
2018-09-28T04:59:41.455Z,996.23
2018-09-28T05:00:41.466Z,996.26
2018-09-28T05:01:41.432Z,996.25
2018-09-28T05:02:41.420Z,996.29
2018-09-28T05:03:41.483Z,996.25
2018-09-28T05:04:41.422Z,996.26
2018-09-28T05:05:41.431Z,996.27
2018-09-28T05:06:41.378Z,996.25
2018-09-28T05:07:41.409Z,996.31
2018-09-28T05:08:41.370Z,996.27
2018-09-28T05:09:41.400Z,996.23
2018-09-28T05:10:41.332Z,996.25
2018-09-28T05:11:41.358Z,996.23
2018-09-28T05:12:41.310Z,996.25
2018-09-28T05:13:41.312Z,996.23
2018-09-28T05:14:41.290Z,996.28
2018-09-28T05:15:41.278Z,996.27
2018-09-28T05:16:41.269Z,996.29
2018-09-28T05:17:41.281Z,996.27
2018-09-28T05:18:41.262Z,996.29
2018-09-28T05:19:41.265Z,996.27
2018-09-28T05:20:41.226Z,996.27
2018-09-28T05:21:41.213Z,996.25
2018-09-28T05:22:41.201Z,996.27
2018-09-28T05:23:41.233Z,996.30
2018-09-28T05:24:41.183Z,996.31
2018-09-28T05:25:41.222Z,996.37
2018-09-28T05:26:41.158Z,996.37
2018-09-28T05:27:41.148Z,996.37
2018-09-28T05:28:41.151Z,996.35
2018-09-28T05:29:41.165Z,996.39
2018-09-28T05:30:44.969Z,996.33
2018-09-28T05:31:41.190Z,996.31
2018-09-28T05:32:41.285Z,996.32
2018-09-28T05:33:41.098Z,996.33
2018-09-28T05:34:41.070Z,996.30
2018-09-28T05:35:41.077Z,996.32
2018-09-28T05:36:41.049Z,996.31
2018-09-28T05:37:41.038Z,996.34
2018-09-28T05:38:41.044Z,996.38
2018-09-28T05:39:41.016Z,996.38
2018-09-28T05:40:41.011Z,996.35
2018-09-28T05:41:41.017Z,996.39
2018-09-28T05:42:40.984Z,996.29
2018-09-28T05:43:41.043Z,996.33
2018-09-28T05:44:40.963Z,996.36
2018-09-28T05:45:40.952Z,996.40
2018-09-28T05:46:40.940Z,996.36
2018-09-28T05:47:40.962Z,996.42
2018-09-28T05:48:40.968Z,996.38
2018-09-28T05:49:40.924Z,996.42
2018-09-28T05:50:40.911Z,996.37
2018-09-28T05:51:40.923Z,996.45
2018-09-28T05:52:40.875Z,996.39
2018-09-28T05:53:40.904Z,996.38
2018-09-28T05:54:40.865Z,996.41
2018-09-28T05:55:40.845Z,996.42
2018-09-28T05:56:40.831Z,996.38
2018-09-28T05:57:40.823Z,996.38
2018-09-28T05:58:40.868Z,996.33
2018-09-28T05:59:40.851Z,996.39
2018-09-28T06:00:40.788Z,996.39
2018-09-28T06:01:40.780Z,996.42
2018-09-28T06:02:40.770Z,996.38
2018-09-28T06:03:40.755Z,996.43
2018-09-28T06:04:40.888Z,996.46
2018-09-28T06:05:40.809Z,996.45
2018-09-28T06:06:40.721Z,996.41
2018-09-28T06:07:40.733Z,996.43
2018-09-28T06:08:40.699Z,996.43
2018-09-28T06:09:40.704Z,996.45
2018-09-28T06:10:40.682Z,996.43
2018-09-28T06:11:40.698Z,996.49
2018-09-28T06:12:40.655Z,996.46
2018-09-28T06:13:40.644Z,996.47
2018-09-28T06:14:40.652Z,996.48
2018-09-28T06:15:40.624Z,996.45
2018-09-28T06:16:40.612Z,996.50
2018-09-28T06:17:40.626Z,996.52
2018-09-28T06:18:40.681Z,996.50
2018-09-28T06:19:40.596Z,996.48
2018-09-28T06:20:40.568Z,996.50
2018-09-28T06:21:40.557Z,996.43
2018-09-28T06:22:40.545Z,996.43
2018-09-28T06:23:40.544Z,996.38
2018-09-28T06:24:40.561Z,996.42
2018-09-28T06:25:40.519Z,996.43
2018-09-28T06:26:40.509Z,996.43
2018-09-28T06:27:40.491Z,996.38
2018-09-28T06:28:40.482Z,996.44
2018-09-28T06:29:40.537Z,996.35
2018-09-28T06:30:40.484Z,996.35
2018-09-28T06:31:40.449Z,996.41
2018-09-28T06:32:40.437Z,996.36
2018-09-28T06:33:40.428Z,996.37
2018-09-28T06:34:40.442Z,996.33
2018-09-28T06:35:40.456Z,996.36
2018-09-28T06:36:40.455Z,996.39
2018-09-28T06:37:40.384Z,996.42
2018-09-28T06:38:40.371Z,996.34
2018-09-28T06:39:40.359Z,996.36
2018-09-28T06:40:40.366Z,996.35
2018-09-28T06:41:40.359Z,996.42
2018-09-28T06:42:40.341Z,996.45
2018-09-28T06:43:40.315Z,996.41
2018-09-28T06:44:40.373Z,996.42
2018-09-28T06:45:40.313Z,996.40
2018-09-28T06:46:40.306Z,996.42
2018-09-28T06:47:40.308Z,996.43
2018-09-28T06:48:40.294Z,996.48
2018-09-28T06:49:40.271Z,996.41
2018-09-28T06:50:40.252Z,996.45
2018-09-28T06:51:40.233Z,996.43
2018-09-28T06:52:40.247Z,996.44
2018-09-28T06:53:40.250Z,996.48
2018-09-28T06:54:40.209Z,996.45
2018-09-28T06:55:40.232Z,996.51
2018-09-28T06:56:40.201Z,996.55
2018-09-28T06:57:40.164Z,996.52
2018-09-28T06:58:40.152Z,996.55
2018-09-28T06:59:40.194Z,996.56
2018-09-28T07:00:40.151Z,996.56
2018-09-28T07:01:40.120Z,996.57
2018-09-28T07:02:40.130Z,996.60
2018-09-28T07:03:40.104Z,996.57
2018-09-28T07:04:40.089Z,996.59
2018-09-28T07:05:40.128Z,996.60
2018-09-28T07:06:40.066Z,996.56
2018-09-28T07:07:40.054Z,996.61
2018-09-28T07:08:40.057Z,996.58
2018-09-28T07:09:40.036Z,996.62
2018-09-28T07:10:40.091Z,996.60
2018-09-28T07:11:40.058Z,996.62
2018-09-28T07:12:40.181Z,996.65
2018-09-28T07:13:39.989Z,996.67
2018-09-28T07:14:39.988Z,996.66
2018-09-28T07:15:40.011Z,996.67
2018-09-28T07:16:40.028Z,996.65
2018-09-28T07:17:40.003Z,996.65
2018-09-28T07:18:39.933Z,996.65
2018-09-28T07:19:39.935Z,996.66
2018-09-28T07:20:39.947Z,996.66
2018-09-28T07:21:39.953Z,996.68
2018-09-28T07:22:39.913Z,996.69
2018-09-28T07:23:39.905Z,996.65
2018-09-28T07:24:39.956Z,996.63
2018-09-28T07:25:39.889Z,996.70
2018-09-28T07:26:39.855Z,996.63
2018-09-28T07:27:39.861Z,996.64
2018-09-28T07:28:39.858Z,996.69
2018-09-28T07:29:39.813Z,996.62
2018-09-28T07:30:39.844Z,996.69
2018-09-28T07:31:39.821Z,996.63
2018-09-28T07:32:39.780Z,996.66
2018-09-28T07:33:39.769Z,996.65
2018-09-28T07:34:39.757Z,996.59
2018-09-28T07:35:39.805Z,996.58
2018-09-28T07:36:39.906Z,996.63
2018-09-28T07:37:39.728Z,996.64
2018-09-28T07:38:39.716Z,996.63
2018-09-28T07:39:39.705Z,996.58
2018-09-28T07:40:39.713Z,996.62
2018-09-28T07:41:39.685Z,996.64
2018-09-28T07:42:39.693Z,996.62
2018-09-28T07:43:39.672Z,996.64
2018-09-28T07:44:39.672Z,996.61
2018-09-28T07:45:39.727Z,996.67
2018-09-28T07:46:39.695Z,996.68
2018-09-28T07:47:39.654Z,996.65
2018-09-28T07:48:39.619Z,996.65
2018-09-28T07:49:39.611Z,996.61
2018-09-28T07:50:39.601Z,996.65
2018-09-28T07:51:39.588Z,996.60
2018-09-28T07:52:39.565Z,996.61
2018-09-28T07:53:39.548Z,996.63
2018-09-28T07:54:39.537Z,996.63
2018-09-28T07:55:39.577Z,996.69
2018-09-28T07:56:39.559Z,996.64
2018-09-28T07:57:39.528Z,996.65
2018-09-28T07:58:39.521Z,996.66
2018-09-28T07:59:39.484Z,996.68
2018-09-28T08:00:39.520Z,996.66
2018-09-28T08:01:39.527Z,996.70
2018-09-28T08:02:39.487Z,996.65
2018-09-28T08:03:39.479Z,996.68
2018-09-28T08:04:39.439Z,996.65
2018-09-28T08:05:39.449Z,996.67
2018-09-28T08:06:39.470Z,996.57
2018-09-28T08:07:39.441Z,996.59
2018-09-28T08:08:39.394Z,996.57
2018-09-28T08:09:39.384Z,996.56
2018-09-28T08:10:39.456Z,996.62
2018-09-28T08:11:39.425Z,996.58
2018-09-28T08:12:39.387Z,996.60
2018-09-28T08:13:39.601Z,996.53
2018-09-28T08:14:39.359Z,996.58
2018-09-28T08:15:39.331Z,996.56
2018-09-28T08:16:39.342Z,996.58
2018-09-28T08:17:39.306Z,996.58
2018-09-28T08:18:39.307Z,996.50
2018-09-28T08:19:39.319Z,996.57
2018-09-28T08:20:39.275Z,996.50
2018-09-28T08:21:39.327Z,996.46
2018-09-28T08:22:39.247Z,996.47
2018-09-28T08:23:39.232Z,996.44
2018-09-28T08:24:39.273Z,996.46
2018-09-28T08:25:39.426Z,996.46
2018-09-28T08:26:39.234Z,996.50
2018-09-28T08:27:39.202Z,996.42
2018-09-28T08:28:39.248Z,996.40
2018-09-28T08:29:39.184Z,996.43
2018-09-28T08:30:39.152Z,996.39
2018-09-28T08:31:39.163Z,996.43
2018-09-28T08:32:39.127Z,996.43
2018-09-28T08:33:39.134Z,996.47
2018-09-28T08:34:39.152Z,996.41
2018-09-28T08:35:39.119Z,996.47
2018-09-28T08:36:39.165Z,996.38
2018-09-28T08:37:39.080Z,996.41
2018-09-28T08:38:39.069Z,996.40
2018-09-28T08:39:39.058Z,996.36
2018-09-28T08:40:39.070Z,996.38
2018-09-28T08:41:39.089Z,996.35
2018-09-28T08:42:39.023Z,996.42
2018-09-28T08:43:39.060Z,996.41
2018-09-28T08:44:39.007Z,996.41
2018-09-28T08:45:39.022Z,996.40
2018-09-28T08:46:39.027Z,996.40
2018-09-28T08:47:38.989Z,996.39
2018-09-28T08:48:38.979Z,996.40
2018-09-28T08:49:38.946Z,996.46
2018-09-28T08:50:38.939Z,996.45
2018-09-28T08:51:38.974Z,996.45
2018-09-28T08:52:38.955Z,996.48
2018-09-28T08:53:38.898Z,996.44
2018-09-28T08:54:38.914Z,996.44
2018-09-28T08:55:38.934Z,996.46
2018-09-28T08:56:38.867Z,996.54
2018-09-28T08:57:38.893Z,996.50
2018-09-28T08:58:38.866Z,996.46
2018-09-28T08:59:38.864Z,996.48
2018-09-28T09:00:38.835Z,996.38
2018-09-28T09:01:38.830Z,996.39
2018-09-28T09:02:38.846Z,996.39
2018-09-28T09:03:38.793Z,996.46
2018-09-28T09:04:38.794Z,996.40
2018-09-28T09:05:38.777Z,996.37
2018-09-28T09:06:38.767Z,996.40
2018-09-28T09:07:38.789Z,996.39
2018-09-28T09:08:38.747Z,996.40
2018-09-28T09:09:38.729Z,996.36
2018-09-28T09:10:38.719Z,996.32
2018-09-28T09:11:38.724Z,996.40
2018-09-28T09:12:38.751Z,996.41
2018-09-28T09:13:38.715Z,996.33
2018-09-28T09:14:38.693Z,996.33
2018-09-28T09:15:38.663Z,996.38
2018-09-28T09:16:38.653Z,996.33
2018-09-28T09:17:38.700Z,996.38
2018-09-28T09:18:38.633Z,996.32
2018-09-28T09:19:38.677Z,996.35
2018-09-28T09:20:38.617Z,996.42
2018-09-28T09:21:38.610Z,996.47
2018-09-28T09:22:38.612Z,996.44
2018-09-28T09:23:38.600Z,996.46
2018-09-28T09:24:38.615Z,996.44
2018-09-28T09:25:38.568Z,996.43
2018-09-28T09:26:38.551Z,996.52
2018-09-28T09:27:38.563Z,996.45
2018-09-28T09:28:38.539Z,996.47
2018-09-28T09:29:38.514Z,996.34
2018-09-28T09:30:38.511Z,996.42
2018-09-28T09:31:38.490Z,996.44
2018-09-28T09:32:38.498Z,996.35
2018-09-28T09:33:38.500Z,996.37
2018-09-28T09:34:38.468Z,996.45
2018-09-28T09:35:38.448Z,996.40
2018-09-28T09:36:38.543Z,996.37
2018-09-28T09:37:38.440Z,996.39
2018-09-28T09:38:38.426Z,996.40
2018-09-28T09:39:38.420Z,996.41
2018-09-28T09:40:38.393Z,996.34
2018-09-28T09:41:38.385Z,996.37
2018-09-28T09:42:38.411Z,996.32
2018-09-28T09:43:38.364Z,996.35
2018-09-28T09:44:38.368Z,996.39
2018-09-28T09:45:38.393Z,996.50
2018-09-28T09:46:38.331Z,996.46
2018-09-28T09:47:38.337Z,996.47
2018-09-28T09:48:38.308Z,996.49
2018-09-28T09:49:38.308Z,996.36
2018-09-28T09:50:38.289Z,996.38
2018-09-28T09:51:38.289Z,996.40
2018-09-28T09:52:38.318Z,996.38
2018-09-28T09:53:38.259Z,996.33
2018-09-28T09:54:38.244Z,996.36
2018-09-28T09:55:38.240Z,996.37
2018-09-28T09:56:38.247Z,996.29
2018-09-28T09:57:38.282Z,996.28
2018-09-28T09:58:38.262Z,996.28
2018-09-28T09:59:38.208Z,996.28
2018-09-28T10:00:38.219Z,996.27
2018-09-28T10:01:38.174Z,996.25
2018-09-28T10:02:38.155Z,996.28
2018-09-28T10:03:38.183Z,996.29
2018-09-28T10:04:38.153Z,996.28
2018-09-28T10:05:38.156Z,996.23
2018-09-28T10:06:38.130Z,996.29
2018-09-28T10:07:38.117Z,996.33
2018-09-28T10:08:38.131Z,996.29
2018-09-28T10:09:38.149Z,996.29
2018-09-28T10:10:38.099Z,996.34
2018-09-28T10:11:38.076Z,996.34
2018-09-28T10:12:38.201Z,996.35
2018-09-28T10:13:38.170Z,996.32
2018-09-28T10:14:38.044Z,996.35
2018-09-28T10:15:38.024Z,996.27
2018-09-28T10:16:38.124Z,996.30
2018-09-28T10:17:38.009Z,996.33
2018-09-28T10:18:38.012Z,996.35
2018-09-28T10:19:38.060Z,996.29
2018-09-28T10:20:37.982Z,996.28
2018-09-28T10:21:37.963Z,996.25
2018-09-28T10:22:37.953Z,996.28
2018-09-28T10:23:37.962Z,996.26
2018-09-28T10:24:37.944Z,996.22
2018-09-28T10:25:37.919Z,996.22
2018-09-28T10:26:37.908Z,996.19
2018-09-28T10:27:37.959Z,996.18
2018-09-28T10:28:37.980Z,996.17
2018-09-28T10:29:37.873Z,996.13
2018-09-28T10:30:37.869Z,996.18
2018-09-28T10:31:37.853Z,996.11
2018-09-28T10:32:37.850Z,996.09
2018-09-28T10:33:37.873Z,996.07
2018-09-28T10:34:37.839Z,996.09
2018-09-28T10:35:37.837Z,996.07
2018-09-28T10:36:37.814Z,996.02
2018-09-28T10:37:37.798Z,996.01
2018-09-28T10:38:37.807Z,996.07
2018-09-28T10:39:37.792Z,996.01
2018-09-28T10:40:37.861Z,996.01
2018-09-28T10:41:37.761Z,995.96
2018-09-28T10:42:37.752Z,995.92
2018-09-28T10:43:37.773Z,995.92
2018-09-28T10:44:37.740Z,995.90
2018-09-28T10:45:37.761Z,995.90
2018-09-28T10:46:37.779Z,995.86
2018-09-28T10:47:37.695Z,995.94
2018-09-28T10:48:37.700Z,995.93
2018-09-28T10:49:37.699Z,995.88
2018-09-28T10:50:37.664Z,995.90
2018-09-28T10:51:37.696Z,995.91
2018-09-28T10:52:37.763Z,995.86
2018-09-28T10:53:37.680Z,995.87
2018-09-28T10:54:37.624Z,995.91
2018-09-28T10:55:37.624Z,995.83
2018-09-28T10:56:37.630Z,995.82
2018-09-28T10:57:37.588Z,995.83
2018-09-28T10:58:37.629Z,995.82
2018-09-28T10:59:37.590Z,995.79
2018-09-28T11:00:37.564Z,995.78
2018-09-28T11:01:37.567Z,995.79
2018-09-28T11:02:37.557Z,995.82
2018-09-28T11:03:37.618Z,995.74
2018-09-28T11:04:37.604Z,995.76
2018-09-28T11:05:37.518Z,995.72
2018-09-28T11:06:37.526Z,995.76
2018-09-28T11:07:37.513Z,995.68
2018-09-28T11:08:37.646Z,995.72
2018-09-28T11:09:37.522Z,995.72
2018-09-28T11:10:37.479Z,995.76
2018-09-28T11:11:37.491Z,995.67
2018-09-28T11:12:37.440Z,995.68
2018-09-28T11:13:37.473Z,995.66
2018-09-28T11:14:37.415Z,995.61
2018-09-28T11:15:37.479Z,995.61
2018-09-28T11:16:37.401Z,995.63
2018-09-28T11:17:37.403Z,995.62
2018-09-28T11:18:37.381Z,995.59
2018-09-28T11:19:37.414Z,995.57
2018-09-28T11:20:37.362Z,995.55
2018-09-28T11:21:37.405Z,995.52
2018-09-28T11:22:37.336Z,995.51
2018-09-28T11:23:37.328Z,995.49
2018-09-28T11:24:37.327Z,995.46
2018-09-28T11:25:37.305Z,995.48
2018-09-28T11:26:37.289Z,995.44
2018-09-28T11:27:37.291Z,995.46
2018-09-28T11:28:37.272Z,995.44
2018-09-28T11:29:37.286Z,995.45
2018-09-28T11:30:37.247Z,995.42
2018-09-28T11:31:37.263Z,995.40
2018-09-28T11:32:37.224Z,995.36
2018-09-28T11:33:37.288Z,995.37
2018-09-28T11:34:37.238Z,995.35
2018-09-28T11:35:37.191Z,995.32
2018-09-28T11:36:37.183Z,995.35
2018-09-28T11:37:37.232Z,995.31
2018-09-28T11:38:37.182Z,995.27
2018-09-28T11:39:37.202Z,995.26
2018-09-28T11:40:37.146Z,995.27
2018-09-28T11:41:37.137Z,995.29
2018-09-28T11:42:37.134Z,995.25
2018-09-28T11:43:37.124Z,995.25
2018-09-28T11:44:37.121Z,995.23
2018-09-28T11:45:37.123Z,995.19
2018-09-28T11:46:37.087Z,995.19
2018-09-28T11:47:37.081Z,995.17
2018-09-28T11:48:37.070Z,995.20
2018-09-28T11:49:37.065Z,995.17
2018-09-28T11:50:37.100Z,995.07
2018-09-28T11:51:37.095Z,995.07
2018-09-28T11:52:37.048Z,994.99
2018-09-28T11:53:37.000Z,994.95
2018-09-28T11:54:37.016Z,994.91
2018-09-28T11:55:36.988Z,994.93
2018-09-28T11:56:36.975Z,994.90
2018-09-28T11:57:37.043Z,994.87
2018-09-28T11:58:36.972Z,994.91
2018-09-28T11:59:36.963Z,994.90
2018-09-28T12:00:36.952Z,994.93
2018-09-28T12:01:36.930Z,994.94
2018-09-28T12:02:36.911Z,994.88
2018-09-28T12:03:36.912Z,994.84
2018-09-28T12:04:36.908Z,994.91
2018-09-28T12:05:36.881Z,994.86
2018-09-28T12:06:36.897Z,994.89
2018-09-28T12:07:36.873Z,994.87
2018-09-28T12:08:36.852Z,994.85
2018-09-28T12:09:36.903Z,994.87
2018-09-28T12:10:36.844Z,994.90
2018-09-28T12:11:36.809Z,994.82
2018-09-28T12:12:36.871Z,994.81
2018-09-28T12:13:36.793Z,994.77
2018-09-28T12:14:36.808Z,994.82
2018-09-28T12:15:36.771Z,994.74
2018-09-28T12:16:36.769Z,994.77
2018-09-28T12:17:36.755Z,994.80
2018-09-28T12:18:36.784Z,994.81
2018-09-28T12:19:37.426Z,994.80
2018-09-28T12:20:36.729Z,994.76
2018-09-28T12:21:36.754Z,994.78
2018-09-28T12:22:36.697Z,994.80
2018-09-28T12:23:36.696Z,994.75
2018-09-28T12:24:36.763Z,994.77
2018-09-28T12:25:36.713Z,994.74
2018-09-28T12:26:36.659Z,994.68
2018-09-28T12:27:36.703Z,994.71
2018-09-28T12:28:36.630Z,994.66